createdAt,value
2023-05-25T00:00:12.808Z,16.58
2023-05-25T00:02:43.044Z,23.02
2023-05-25T00:10:26.158Z,18.48
2023-05-25T00:12:57.208Z,19.00
2023-05-25T00:15:26.831Z,17.55
2023-05-25T00:17:56.834Z,17.92
2023-05-25T00:20:26.665Z,18.63
2023-05-25T00:22:56.441Z,19.05
2023-05-25T00:25:28.710Z,18.83
2023-05-25T00:27:58.824Z,19.38
2023-05-25T00:30:28.487Z,20.85
2023-05-25T00:32:58.414Z,20.55
2023-05-25T00:35:28.083Z,20.98
2023-05-25T00:37:57.739Z,22.08
2023-05-25T00:40:29.962Z,25.10
2023-05-25T00:43:02.231Z,17.67
2023-05-25T00:45:31.859Z,20.70
2023-05-25T00:48:03.300Z,19.42
2023-05-25T00:50:41.189Z,23.85
2023-05-25T00:53:11.752Z,21.60
2023-05-25T00:55:51.203Z,22.58
2023-05-25T00:58:24.863Z,21.73
2023-05-25T01:00:57.981Z,17.70
2023-05-25T01:03:31.206Z,17.85
2023-05-25T01:06:02.334Z,23.98
2023-05-25T01:08:36.192Z,21.17
2023-05-25T01:11:11.636Z,18.13
2023-05-25T01:13:42.940Z,19.52
2023-05-25T01:16:13.146Z,20.60
2023-05-25T01:18:43.945Z,18.80
2023-05-25T01:21:22.950Z,18.15
2023-05-25T01:24:01.696Z,20.83
2023-05-25T01:26:35.212Z,23.70
2023-05-25T01:29:05.270Z,22.60
2023-05-25T01:31:38.872Z,22.90
2023-05-25T01:34:08.646Z,18.30
2023-05-25T01:36:41.917Z,20.63
2023-05-25T01:39:13.931Z,22.98
2023-05-25T01:41:43.577Z,19.77
2023-05-25T01:44:13.822Z,23.30
2023-05-25T01:46:44.136Z,21.30
2023-05-25T01:49:38.902Z,20.92
2023-05-25T01:52:21.086Z,26.10
2023-05-25T01:54:56.019Z,24.50
2023-05-25T01:57:27.430Z,21.75
2023-05-25T02:00:00.517Z,21.27
2023-05-25T02:02:31.382Z,22.60
2023-05-25T02:05:01.618Z,20.35
2023-05-25T02:07:34.045Z,19.05
2023-05-25T02:10:03.662Z,21.42
2023-05-25T02:12:33.480Z,22.00
2023-05-25T02:15:03.226Z,20.17
2023-05-25T02:17:33.008Z,19.30
2023-05-25T02:20:02.691Z,21.85
2023-05-25T02:22:35.251Z,23.42
2023-05-25T02:25:04.923Z,25.55
2023-05-25T02:27:34.572Z,21.08
2023-05-25T02:30:04.244Z,20.33
2023-05-25T02:32:34.101Z,28.98
2023-05-25T02:35:04.066Z,25.00
2023-05-25T02:37:36.520Z,21.27
2023-05-25T02:40:06.861Z,20.95
2023-05-25T02:42:36.541Z,20.27
2023-05-25T02:45:07.163Z,24.05
2023-05-25T02:47:40.832Z,24.10
2023-05-25T02:50:11.199Z,22.40
2023-05-25T02:52:43.349Z,24.30
2023-05-25T02:55:13.748Z,24.38
2023-05-25T02:57:43.610Z,24.30
2023-05-25T03:00:15.001Z,19.70
2023-05-25T03:02:47.043Z,22.13
2023-05-25T03:05:16.896Z,23.98
2023-05-25T03:07:49.314Z,21.75
2023-05-25T03:10:19.234Z,25.13
2023-05-25T03:12:49.935Z,27.70
2023-05-25T03:15:19.884Z,27.13
2023-05-25T03:17:51.758Z,23.52
2023-05-25T03:20:24.878Z,23.05
2023-05-25T03:22:58.015Z,23.25
2023-05-25T03:25:27.731Z,21.88
2023-05-25T03:27:57.769Z,22.33
2023-05-25T03:30:27.832Z,24.35
2023-05-25T03:32:57.608Z,23.52
2023-05-25T03:35:27.506Z,25.00
2023-05-25T03:37:59.787Z,23.17
2023-05-25T03:40:29.477Z,21.42
2023-05-25T03:42:59.285Z,18.65
2023-05-25T03:45:29.010Z,20.02
2023-05-25T03:47:59.125Z,19.02
2023-05-25T03:50:28.864Z,19.75
2023-05-25T03:53:01.293Z,17.70
2023-05-25T03:55:32.782Z,22.48
2023-05-25T03:58:02.686Z,17.35
2023-05-25T04:00:33.632Z,19.67
2023-05-25T04:03:03.337Z,18.27
2023-05-25T04:05:33.189Z,20.02
2023-05-25T04:08:07.151Z,17.90
2023-05-25T04:10:39.216Z,19.35
2023-05-25T04:13:09.026Z,21.48
2023-05-25T04:15:38.778Z,24.13
2023-05-25T04:18:09.665Z,25.70
2023-05-25T04:20:39.545Z,22.83
2023-05-25T04:23:11.955Z,27.60
2023-05-25T04:25:42.581Z,23.50
2023-05-25T04:28:12.718Z,22.98
2023-05-25T04:30:42.775Z,22.83
2023-05-25T04:33:14.695Z,20.58
2023-05-25T04:35:44.345Z,23.88
2023-05-25T04:38:18.883Z,16.83
2023-05-25T04:40:49.272Z,17.83
2023-05-25T04:43:20.591Z,19.88
2023-05-25T04:45:51.745Z,21.73
2023-05-25T04:48:21.843Z,15.70
2023-05-25T04:50:52.026Z,18.90
2023-05-25T04:53:24.814Z,17.05
2023-05-25T04:55:55.593Z,16.00
2023-05-25T04:58:25.712Z,18.92
2023-05-25T05:00:55.424Z,20.80
2023-05-25T05:03:25.358Z,19.98
2023-05-25T05:05:55.087Z,18.25
2023-05-25T05:08:27.402Z,18.48
2023-05-25T05:10:57.117Z,16.90
2023-05-25T05:13:26.754Z,15.35
2023-05-25T05:15:57.191Z,19.77
2023-05-25T05:18:29.700Z,18.05
2023-05-25T05:21:00.018Z,17.38
2023-05-25T05:23:35.224Z,18.17
2023-05-25T05:26:07.403Z,17.60
2023-05-25T05:28:37.008Z,18.23
2023-05-25T05:31:07.039Z,16.85
2023-05-25T05:33:39.944Z,19.45
2023-05-25T05:36:09.927Z,17.42
2023-05-25T05:38:43.210Z,20.25
2023-05-25T05:41:14.413Z,16.35
2023-05-25T05:43:46.139Z,18.63
2023-05-25T05:46:15.865Z,14.20
2023-05-25T05:48:45.554Z,17.58
2023-05-25T05:51:15.213Z,15.18
2023-05-25T05:53:47.426Z,17.10
2023-05-25T05:56:22.970Z,15.77
2023-05-25T05:58:54.287Z,15.02
2023-05-25T06:01:25.642Z,18.52
2023-05-25T06:03:56.232Z,15.63
2023-05-25T06:06:26.194Z,16.13
2023-05-25T06:08:58.408Z,15.07
2023-05-25T06:11:27.990Z,17.15
2023-05-25T06:13:57.930Z,15.57
2023-05-25T06:16:27.603Z,14.75
2023-05-25T06:18:58.337Z,15.07
2023-05-25T06:21:28.366Z,11.20
2023-05-25T06:24:00.776Z,15.63
2023-05-25T06:26:30.426Z,14.27
2023-05-25T06:29:00.472Z,14.50
2023-05-25T06:31:30.400Z,14.75
2023-05-25T06:34:00.192Z,13.50
2023-05-25T06:36:32.186Z,14.60
2023-05-25T06:39:04.491Z,13.02
2023-05-25T06:41:35.030Z,15.52
2023-05-25T06:44:04.862Z,20.35
2023-05-25T06:46:34.546Z,12.60
2023-05-25T06:49:05.025Z,14.75
2023-05-25T06:51:37.157Z,16.00
2023-05-25T06:54:09.819Z,15.63
2023-05-25T06:56:39.415Z,13.93
2023-05-25T06:59:09.114Z,14.70
2023-05-25T07:01:39.153Z,16.20
2023-05-25T07:04:08.969Z,13.57
2023-05-25T07:06:38.634Z,16.52
2023-05-25T07:09:11.296Z,14.85
2023-05-25T07:11:40.939Z,17.88
2023-05-25T07:14:10.875Z,16.95
2023-05-25T07:16:42.721Z,14.75
2023-05-25T07:19:14.769Z,15.55
2023-05-25T07:21:44.400Z,14.00
2023-05-25T07:24:19.337Z,15.93
2023-05-25T07:26:50.521Z,14.70
2023-05-25T07:29:20.187Z,16.42
2023-05-25T07:31:49.978Z,15.15
2023-05-25T07:34:22.789Z,16.27
2023-05-25T07:36:52.520Z,18.45
2023-05-25T07:39:25.985Z,19.25
2023-05-25T07:41:55.727Z,16.73
2023-05-25T07:44:29.324Z,18.60
2023-05-25T07:46:59.135Z,18.92
2023-05-25T07:49:31.326Z,14.48
2023-05-25T07:52:01.052Z,18.92
2023-05-25T07:54:33.887Z,18.30
2023-05-25T07:57:03.661Z,18.05
2023-05-25T07:59:33.337Z,15.20
2023-05-25T08:02:03.025Z,18.40
2023-05-25T08:04:34.051Z,20.17
2023-05-25T08:07:04.048Z,16.77
2023-05-25T08:09:36.300Z,17.98
2023-05-25T08:12:27.187Z,16.55
2023-05-25T08:14:56.509Z,20.52
2023-05-25T08:17:26.785Z,16.70
2023-05-25T08:19:57.996Z,19.40
2023-05-25T08:22:28.409Z,12.95
2023-05-25T08:25:00.924Z,16.17
2023-05-25T08:27:32.813Z,16.98
2023-05-25T08:30:04.195Z,14.02
2023-05-25T08:32:33.946Z,14.20
2023-05-25T08:35:03.761Z,14.40
2023-05-25T08:37:35.786Z,12.32
2023-05-25T08:40:09.881Z,11.93
2023-05-25T08:42:39.552Z,17.10
2023-05-25T08:45:14.333Z,13.63
2023-05-25T08:47:54.003Z,12.65
2023-05-25T08:50:25.281Z,13.13
2023-05-25T08:52:57.798Z,11.93
2023-05-25T08:55:36.637Z,11.77
2023-05-25T08:58:16.728Z,12.30
2023-05-25T09:00:55.047Z,12.07
2023-05-25T09:03:25.963Z,11.40
2023-05-25T09:05:57.796Z,11.48
2023-05-25T09:08:29.924Z,11.48
2023-05-25T09:11:03.800Z,10.82
2023-05-25T09:13:33.727Z,9.38
2023-05-25T09:16:03.361Z,11.30
2023-05-25T09:18:34.425Z,9.65
2023-05-25T09:21:04.875Z,12.48
2023-05-25T09:23:35.344Z,10.15
2023-05-25T09:26:09.059Z,12.57
2023-05-25T09:28:48.270Z,10.65
2023-05-25T09:31:18.382Z,12.15
2023-05-25T09:33:49.138Z,12.07
2023-05-25T09:36:22.199Z,11.02
2023-05-25T09:38:52.599Z,8.80
2023-05-25T09:41:27.815Z,9.07
2023-05-25T09:44:10.356Z,10.13
2023-05-25T09:46:45.009Z,9.85
2023-05-25T09:49:14.767Z,8.15
2023-05-25T09:51:44.537Z,8.95
2023-05-25T09:54:14.758Z,8.30
2023-05-25T09:56:47.939Z,9.73
2023-05-25T09:59:18.857Z,8.93
2023-05-25T10:01:54.002Z,10.60
2023-05-25T10:04:24.053Z,9.57
2023-05-25T10:06:56.982Z,8.18
2023-05-25T10:09:31.753Z,8.27
2023-05-25T10:12:05.804Z,10.57
2023-05-25T10:14:39.795Z,9.02
2023-05-25T10:17:11.763Z,8.90
2023-05-25T10:19:45.886Z,11.90
2023-05-25T10:22:22.236Z,10.15
2023-05-25T10:24:58.948Z,8.18
2023-05-25T10:27:37.493Z,9.15
2023-05-25T10:30:09.184Z,13.80
2023-05-25T10:32:42.077Z,10.85
2023-05-25T10:35:12.986Z,9.63
2023-05-25T10:37:43.278Z,9.13
2023-05-25T10:40:15.798Z,8.85
2023-05-25T10:42:48.529Z,9.43
2023-05-25T10:45:19.775Z,9.90
2023-05-25T10:47:51.343Z,12.80
2023-05-25T10:50:26.445Z,10.70
2023-05-25T10:53:03.636Z,8.50
2023-05-25T10:55:45.673Z,9.23
2023-05-25T10:58:19.706Z,7.63
2023-05-25T11:01:02.887Z,9.43
2023-05-25T11:03:51.797Z,10.27
2023-05-25T11:06:25.948Z,7.07
2023-05-25T11:08:59.776Z,11.10
2023-05-25T11:12:04.192Z,9.27
2023-05-25T11:14:38.608Z,8.68
2023-05-25T11:17:12.006Z,9.70
2023-05-25T11:19:47.916Z,9.10
2023-05-25T11:22:21.522Z,10.18
2023-05-25T11:24:51.881Z,10.57
2023-05-25T11:27:26.775Z,11.35
2023-05-25T11:30:00.681Z,9.95
2023-05-25T11:32:30.951Z,7.75
2023-05-25T11:35:01.355Z,9.57
2023-05-25T11:37:31.989Z,11.55
2023-05-25T11:40:01.821Z,10.10
2023-05-25T11:42:34.951Z,11.05
2023-05-25T11:45:13.543Z,9.48
2023-05-25T11:47:43.577Z,9.43
2023-05-25T11:50:18.962Z,11.02
2023-05-25T11:52:48.801Z,10.68
2023-05-25T11:55:18.523Z,8.02
2023-05-25T11:57:49.680Z,9.45
2023-05-25T12:00:31.820Z,7.43
2023-05-25T12:03:02.907Z,10.02
2023-05-25T12:05:40.787Z,11.73
2023-05-25T12:08:10.703Z,8.88
2023-05-25T12:10:52.800Z,9.98
2023-05-25T12:13:23.162Z,9.38
2023-05-25T12:15:57.844Z,10.15
2023-05-25T12:18:27.682Z,9.03
2023-05-25T12:20:57.727Z,10.57
2023-05-25T12:23:27.974Z,9.85
2023-05-25T12:26:11.643Z,9.50
2023-05-25T12:28:41.420Z,11.10
2023-05-25T12:31:27.308Z,10.50
2023-05-25T12:34:07.438Z,10.15
2023-05-25T12:36:51.905Z,7.63
2023-05-25T12:39:39.135Z,9.60
2023-05-25T12:42:16.432Z,9.32
2023-05-25T12:44:49.909Z,8.43
2023-05-25T12:47:23.859Z,9.88
2023-05-25T12:49:56.168Z,10.65
2023-05-25T12:52:36.853Z,8.98
2023-05-25T12:55:22.685Z,10.18
2023-05-25T12:57:53.945Z,8.35
2023-05-25T13:00:25.600Z,11.32
2023-05-25T13:02:58.013Z,8.45
2023-05-25T13:05:29.189Z,11.98
2023-05-25T13:08:00.289Z,8.70
2023-05-25T13:10:30.977Z,9.93
2023-05-25T13:13:01.014Z,10.35
2023-05-25T13:15:31.787Z,10.63
2023-05-25T13:18:05.848Z,9.38
2023-05-25T13:20:37.021Z,8.63
2023-05-25T13:23:09.126Z,11.38
2023-05-25T13:25:40.542Z,9.50
2023-05-25T13:28:11.796Z,9.75
2023-05-25T13:30:42.720Z,8.88
2023-05-25T13:33:17.806Z,9.35
2023-05-25T13:35:58.718Z,9.13
2023-05-25T13:38:29.837Z,11.57
2023-05-25T13:41:01.828Z,11.50
2023-05-25T13:43:33.780Z,7.63
2023-05-25T13:46:03.631Z,8.88
2023-05-25T13:48:37.942Z,7.90
2023-05-25T13:51:07.944Z,7.20
2023-05-25T13:53:37.808Z,9.82
2023-05-25T13:56:08.039Z,7.88
2023-05-25T13:58:37.705Z,9.00
2023-05-25T14:01:07.881Z,7.65
2023-05-25T14:03:40.896Z,8.07
2023-05-25T14:06:10.959Z,6.80
2023-05-25T14:08:40.783Z,9.70
2023-05-25T14:11:10.501Z,8.38
2023-05-25T14:13:41.043Z,9.98
2023-05-25T14:16:11.803Z,8.05
2023-05-25T14:18:44.089Z,10.05
2023-05-25T14:21:14.995Z,8.38
2023-05-25T14:23:44.793Z,11.00
2023-05-25T14:26:15.406Z,11.20
2023-05-25T14:28:45.047Z,11.63
2023-05-25T14:31:14.871Z,7.13
2023-05-25T14:33:50.413Z,11.00
2023-05-25T14:36:20.254Z,9.10
2023-05-25T14:38:49.912Z,10.30
2023-05-25T14:41:19.832Z,10.57
2023-05-25T14:43:49.435Z,8.70
2023-05-25T14:46:19.417Z,11.93
2023-05-25T14:48:53.598Z,8.93
2023-05-25T14:51:23.322Z,8.65
2023-05-25T14:53:54.613Z,9.82
2023-05-25T14:56:25.978Z,7.00
2023-05-25T14:58:55.585Z,9.95
2023-05-25T15:01:25.610Z,11.40
2023-05-25T15:03:58.372Z,9.93
2023-05-25T15:06:30.251Z,8.10
2023-05-25T15:09:03.383Z,7.80
2023-05-25T15:11:32.998Z,11.70
2023-05-25T15:14:02.673Z,8.98
2023-05-25T15:16:35.066Z,8.73
2023-05-25T15:19:10.702Z,6.68
2023-05-25T15:21:41.534Z,7.75
2023-05-25T15:24:13.992Z,8.18
2023-05-25T15:26:43.833Z,7.65
2023-05-25T15:29:13.632Z,8.88
2023-05-25T15:31:43.507Z,8.68
2023-05-25T15:34:16.066Z,8.65
2023-05-25T15:36:45.714Z,6.90
2023-05-25T15:39:17.676Z,8.80
2023-05-25T15:41:47.318Z,9.75
2023-05-25T15:44:17.002Z,9.10
2023-05-25T15:46:46.761Z,8.73
2023-05-25T15:49:20.091Z,9.48
2023-05-25T15:51:49.766Z,7.88
2023-05-25T15:54:19.619Z,8.80
2023-05-25T15:56:49.806Z,8.98
2023-05-25T15:59:20.924Z,7.05
2023-05-25T16:01:50.655Z,8.40
2023-05-25T16:04:24.117Z,9.98
2023-05-25T16:06:53.794Z,8.68
2023-05-25T16:09:25.247Z,10.10
2023-05-25T16:11:54.905Z,9.00
2023-05-25T16:14:24.566Z,7.30
2023-05-25T16:16:54.265Z,10.93
2023-05-25T16:19:26.863Z,7.47
2023-05-25T16:21:57.795Z,8.30
2023-05-25T16:24:28.937Z,9.02
2023-05-25T16:26:58.543Z,8.23
2023-05-25T16:29:28.824Z,8.82
2023-05-25T16:31:58.691Z,12.02
2023-05-25T16:34:32.279Z,8.25
2023-05-25T16:37:01.924Z,9.18
2023-05-25T16:39:31.641Z,9.18
2023-05-25T16:42:02.630Z,9.70
2023-05-25T16:44:32.271Z,11.20
2023-05-25T16:47:02.848Z,9.80
2023-05-25T16:49:35.101Z,9.35
2023-05-25T16:52:05.376Z,9.95
2023-05-25T16:54:34.988Z,8.13
2023-05-25T16:57:04.705Z,9.50
2023-05-25T16:59:35.394Z,10.70
2023-05-25T17:02:08.789Z,6.85
2023-05-25T17:04:41.066Z,9.15
2023-05-25T17:07:10.932Z,9.52
2023-05-25T17:09:40.980Z,9.88
2023-05-25T17:12:12.543Z,8.38
2023-05-25T17:14:43.314Z,9.27
2023-05-25T17:17:14.162Z,9.23
2023-05-25T17:19:46.481Z,15.60
2023-05-25T17:22:17.805Z,8.35
2023-05-25T17:24:47.420Z,9.15
2023-05-25T17:27:17.186Z,8.68
2023-05-25T17:29:46.814Z,9.43
2023-05-25T17:32:16.599Z,10.48
2023-05-25T17:34:48.897Z,11.32
2023-05-25T17:37:21.362Z,8.75
2023-05-25T17:39:51.808Z,9.98
2023-05-25T17:42:21.506Z,8.55
2023-05-25T17:44:51.101Z,9.38
2023-05-25T17:47:21.591Z,10.88
2023-05-25T17:49:54.280Z,12.40
2023-05-25T17:52:26.432Z,9.80
2023-05-25T17:54:58.821Z,11.07
2023-05-25T17:57:28.652Z,13.60
2023-05-25T17:59:58.803Z,11.07
2023-05-25T18:02:30.581Z,9.65
2023-05-25T18:05:03.272Z,11.60
2023-05-25T18:07:33.799Z,11.32
2023-05-25T18:10:04.459Z,10.35
2023-05-25T18:12:34.385Z,10.88
2023-05-25T18:15:04.026Z,9.45
2023-05-25T18:17:35.880Z,9.07
2023-05-25T18:20:12.103Z,10.55
2023-05-25T18:22:41.798Z,10.73
2023-05-25T18:25:13.895Z,8.80
2023-05-25T18:27:46.305Z,9.85
2023-05-25T18:30:18.713Z,13.65
2023-05-25T18:32:49.830Z,9.82
2023-05-25T18:35:24.593Z,9.35
2023-05-25T18:37:54.196Z,8.57
2023-05-25T18:40:23.876Z,11.48
2023-05-25T18:42:53.548Z,12.85
2023-05-25T18:45:23.642Z,12.38
2023-05-25T18:47:53.857Z,12.60
2023-05-25T18:50:26.677Z,16.58
2023-05-25T18:53:00.025Z,17.55
2023-05-25T18:55:30.098Z,10.77
2023-05-25T18:58:06.728Z,13.10
2023-05-25T19:00:36.401Z,12.77
2023-05-25T19:03:07.025Z,12.05
2023-05-25T19:05:39.880Z,11.45
2023-05-25T19:08:10.710Z,12.73
2023-05-25T19:10:42.115Z,15.63
2023-05-25T19:13:12.031Z,13.00
2023-05-25T19:15:41.884Z,15.65
2023-05-25T19:18:12.620Z,14.80
2023-05-25T19:20:45.124Z,15.48
2023-05-25T19:23:15.820Z,13.13
2023-05-25T19:25:47.193Z,16.77
2023-05-25T19:28:17.142Z,12.25
2023-05-25T19:30:46.783Z,12.13
2023-05-25T19:33:16.517Z,15.40
2023-05-25T19:35:53.843Z,13.95
2023-05-25T19:38:26.641Z,14.60
2023-05-25T19:40:58.780Z,14.27
2023-05-25T19:43:28.401Z,15.98
2023-05-25T19:45:58.822Z,16.63
2023-05-25T19:48:28.569Z,17.35
2023-05-25T19:51:01.861Z,16.92
2023-05-25T19:53:34.015Z,15.73
2023-05-25T19:56:04.137Z,13.43
2023-05-25T19:58:35.136Z,16.88
2023-05-25T20:01:05.101Z,18.23
2023-05-25T20:03:34.992Z,16.70
2023-05-25T20:06:10.662Z,14.60
2023-05-25T20:08:40.576Z,16.90
2023-05-25T20:11:10.252Z,17.58
2023-05-25T20:13:39.862Z,17.95
2023-05-25T20:16:10.670Z,17.42
2023-05-25T20:18:40.463Z,17.55
2023-05-25T20:21:12.829Z,19.13
2023-05-25T20:23:43.004Z,16.88
2023-05-25T20:26:12.637Z,17.67
2023-05-25T20:28:43.971Z,15.27
2023-05-25T20:31:13.810Z,21.05
2023-05-25T20:33:43.543Z,15.98
2023-05-25T20:36:15.919Z,16.58
2023-05-25T20:38:46.794Z,15.35
2023-05-25T20:41:16.908Z,16.40
2023-05-25T20:43:49.782Z,17.02
2023-05-25T20:46:19.873Z,15.20
2023-05-25T20:48:49.598Z,16.77
2023-05-25T20:51:22.060Z,18.17
2023-05-25T20:53:51.814Z,18.45
2023-05-25T20:56:21.746Z,18.60
2023-05-25T20:58:53.789Z,20.30
2023-05-25T21:01:23.584Z,21.88
2023-05-25T21:03:54.496Z,18.77
2023-05-25T21:09:02.094Z,20.58
2023-05-25T21:11:31.890Z,20.50
2023-05-25T21:14:02.278Z,20.83
2023-05-25T21:16:32.103Z,21.30
2023-05-25T21:19:01.841Z,19.05
2023-05-25T21:21:36.927Z,23.42
2023-05-25T21:24:06.970Z,20.90
2023-05-25T21:26:36.902Z,17.95
2023-05-25T21:29:07.824Z,18.42
2023-05-25T21:31:37.860Z,20.65
2023-05-25T21:34:07.579Z,18.83
2023-05-25T21:36:39.829Z,24.15
2023-05-25T21:39:09.823Z,22.38
2023-05-25T21:41:39.521Z,17.75
2023-05-25T21:44:10.298Z,17.80
2023-05-25T21:46:40.620Z,16.60
2023-05-25T21:49:11.248Z,15.88
2023-05-25T21:51:45.649Z,20.55
2023-05-25T21:54:15.277Z,18.50
2023-05-25T21:56:45.065Z,18.42
2023-05-25T21:59:14.764Z,16.25
2023-05-25T22:01:44.655Z,17.52
2023-05-25T22:04:15.455Z,19.17
2023-05-25T22:06:47.735Z,15.25
2023-05-25T22:09:17.510Z,19.70
2023-05-25T22:11:48.691Z,16.42
2023-05-25T22:14:18.799Z,16.17
2023-05-25T22:16:48.668Z,17.42
2023-05-25T22:19:18.768Z,16.38
2023-05-25T22:21:51.070Z,16.13
2023-05-25T22:24:23.006Z,16.80
2023-05-25T22:26:52.683Z,19.70
2023-05-25T22:29:22.633Z,20.27
2023-05-25T22:31:52.502Z,21.73
2023-05-25T22:34:23.054Z,15.88
2023-05-25T22:36:55.310Z,16.13
2023-05-25T22:39:24.981Z,20.10
2023-05-25T22:41:55.174Z,19.90
2023-05-25T22:44:24.804Z,20.50
2023-05-25T22:46:54.965Z,17.45
2023-05-25T22:49:28.652Z,18.42
2023-05-25T22:52:01.846Z,16.80
2023-05-25T22:54:31.712Z,16.92
2023-05-25T22:57:01.605Z,16.92
2023-05-25T22:59:31.258Z,20.13
2023-05-25T23:02:01.076Z,17.85
2023-05-25T23:04:30.856Z,16.98
2023-05-25T23:07:03.051Z,18.08
2023-05-25T23:09:32.673Z,18.73
2023-05-25T23:12:05.857Z,16.35
2023-05-25T23:14:36.806Z,19.08
2023-05-25T23:17:06.515Z,16.40
2023-05-25T23:19:36.113Z,18.20
2023-05-25T23:22:09.740Z,19.88
2023-05-25T23:24:40.573Z,18.48
2023-05-25T23:27:10.237Z,17.40
2023-05-25T23:29:39.914Z,16.88
2023-05-25T23:32:09.886Z,16.98
2023-05-25T23:34:39.530Z,21.25
2023-05-25T23:37:12.723Z,18.40
2023-05-25T23:39:44.750Z,21.00
2023-05-25T23:42:15.702Z,18.88
2023-05-25T23:44:45.791Z,17.02
2023-05-25T23:47:15.882Z,18.40
2023-05-25T23:49:47.614Z,16.65
2023-05-25T23:52:20.761Z,17.95
2023-05-25T23:54:50.366Z,17.52
2023-05-25T23:57:20.000Z,19.55
2023-05-25T23:59:52.746Z,18.10
